Time;durP1;ratioP1;P1;durP2;ratioP2;P2;SDS_P1;SDS_P2;PMS_P1;PMS_P2;Temp;Humidity;BMP_temperature;BMP_pressure;BME280_temperature;BME280_humidity;BME280_pressure;Samples;Min_cycle;Max_cycle;Signal;HPM_P1;HPM_P2
2023/11/16 00:00:48;;;;;;;6.03;1.58;;;;;;;5.07;72.26;100229.44;4968223;28;20456;-46
2023/11/16 00:03:16;;;;;;;5.95;3.17;;;;;;;5.05;72.49;100219.97;4964564;28;20050;-49
2023/11/16 00:05:44;;;;;;;3.92;2.83;;;;;;;5.03;72.71;100212.22;4970780;28;20049;-42
2023/11/16 00:08:11;;;;;;;6.18;2.92;;;;;;;5.01;72.99;100206.19;4965102;28;20057;-42
2023/11/16 00:10:39;;;;;;;8.35;3.40;;;;;;;4.99;72.57;100210.41;4970014;28;20137;-47
2023/11/16 00:13:06;;;;;;;7.20;3.22;;;;;;;4.98;73.04;100196.72;4973244;28;20047;-50
2023/11/16 00:15:33;;;;;;;5.53;3.03;;;;;;;4.95;73.06;100183.81;4972432;28;20042;-48
2023/11/16 00:18:04;;;;;;;10.73;3.08;;;;;;;4.95;72.54;100182.94;4970149;28;20039;-44
2023/11/16 00:20:32;;;;;;;10.00;3.13;;;;;;;4.96;73.04;100174.44;4966977;28;20063;-44
2023/11/16 00:22:59;;;;;;;8.25;2.72;;;;;;;4.96;73.46;100179.56;4969686;28;20050;-43
2023/11/16 00:25:26;;;;;;;6.10;3.17;;;;;;;4.97;72.86;100176.16;4971578;28;20046;-41
2023/11/16 00:27:53;;;;;;;12.73;3.92;;;;;;;4.98;73.50;100183.91;4959609;28;20051;-45
2023/11/16 00:30:19;;;;;;;6.43;3.25;;;;;;;4.99;72.82;100179.63;4975769;28;20543;-49
2023/11/16 00:32:46;;;;;;;9.88;3.38;;;;;;;4.99;72.86;100189.88;4973214;28;20092;-48
2023/11/16 00:35:13;;;;;;;18.20;3.55;;;;;;;4.98;73.75;100194.16;4975031;28;20054;-51
2023/11/16 00:37:41;;;;;;;8.82;3.13;;;;;;;4.98;73.01;100193.28;4972950;28;20054;-47
2023/11/16 00:40:10;;;;;;;5.63;3.55;;;;;;;4.97;73.95;100191.56;4969184;28;20496;-44
2023/11/16 00:42:37;;;;;;;11.75;4.07;;;;;;;4.96;73.91;100180.41;4973513;28;20046;-48
2023/11/16 00:45:06;;;;;;;8.38;2.42;;;;;;;4.96;73.96;100182.97;4975396;28;20399;-43
2023/11/16 00:47:33;;;;;;;6.38;3.38;;;;;;;4.97;73.88;100181.28;4963267;28;20112;-41
2023/11/16 00:49:59;;;;;;;7.63;3.58;;;;;;;4.99;73.51;100184.75;4973223;28;20057;-44
2023/11/16 00:52:27;;;;;;;5.55;2.80;;;;;;;4.99;73.06;100184.75;4976391;28;20046;-44
2023/11/16 00:54:55;;;;;;;9.27;3.42;;;;;;;5.00;73.87;100181.38;4977086;28;20045;-46
2023/11/16 00:57:22;;;;;;;7.57;3.65;;;;;;;5.00;73.36;100171.09;4977159;28;20042;-50
2023/11/16 00:59:49;;;;;;;10.35;3.47;;;;;;;5.03;73.34;100157.47;4965965;28;20535;-48
2023/11/16 01:02:15;;;;;;;10.45;3.72;;;;;;;5.04;73.44;100170.34;4966619;28;20050;-51
2023/11/16 01:04:42;;;;;;;7.22;3.92;;;;;;;5.05;73.48;100159.22;4971323;28;20500;-47
2023/11/16 01:07:10;;;;;;;7.22;3.58;;;;;;;5.06;73.64;100163.50;4966488;28;20042;-46
2023/11/16 01:09:38;;;;;;;9.85;3.95;;;;;;;5.07;73.93;100152.41;4968636;28;20078;-51
2023/11/16 01:12:14;;;;;;;10.23;2.25;;;;;;;5.08;74.18;100148.16;4970969;28;20419;-46
2023/11/16 01:14:42;;;;;;;6.72;3.90;;;;;;;5.10;73.86;100151.63;4951515;28;20066;-43
2023/11/16 01:17:18;;;;;;;8.95;1.83;;;;;;;5.09;74.30;100144.72;5006120;28;20121;-55
2023/11/16 01:19:46;;;;;;;5.72;3.35;;;;;;;5.11;74.05;100143.97;4973745;28;20054;-50
2023/11/16 01:22:16;;;;;;;4.63;1.73;;;;;;;5.11;74.10;100136.25;4975445;28;20046;-47
2023/11/16 01:24:44;;;;;;;8.98;3.42;;;;;;;5.12;74.28;100132.84;4968961;28;20579;-40
2023/11/16 01:27:19;;;;;;;7.80;3.20;;;;;;;5.13;74.23;100129.44;4966965;28;20142;-46
2023/11/16 01:29:46;;;;;;;8.93;4.18;;;;;;;5.12;74.35;100135.41;4963165;28;20046;-44
2023/11/16 01:32:14;;;;;;;9.07;3.33;;;;;;;5.12;74.54;100125.16;4972130;28;20444;-48
2023/11/16 01:34:42;;;;;;;11.80;3.83;;;;;;;5.11;73.98;100123.41;4974537;28;20141;-50
2023/11/16 01:37:10;;;;;;;10.88;4.32;;;;;;;5.09;74.42;100119.94;4971178;28;20182;-46
2023/11/16 01:39:39;;;;;;;7.32;4.95;;;;;;;5.07;74.46;100121.59;4964483;28;20053;-44
2023/11/16 01:42:09;;;;;;;9.63;3.75;;;;;;;5.07;74.00;100118.19;4979477;28;20074;-47
2023/11/16 01:44:38;;;;;;;8.75;3.75;;;;;;;5.05;74.16;100107.00;4975438;28;20050;-45
2023/11/16 01:47:08;;;;;;;6.57;4.20;;;;;;;5.03;74.19;100104.38;4978853;28;20050;-49
2023/11/16 01:49:36;;;;;;;;;;;;;;;4.94;74.06;100099.06;4974337;28;20515;-44
2023/11/16 01:52:05;;;;;;;8.05;3.55;;;;;;;4.97;73.99;100096.59;4980181;28;20029;-49
2023/11/16 01:54:36;;;;;;;8.65;3.60;;;;;;;4.97;73.82;100101.72;4982035;28;20492;-48
2023/11/16 01:57:05;;;;;;;5.43;3.25;;;;;;;4.96;74.28;100102.56;4967787;28;20050;-45
2023/11/16 01:59:34;;;;;;;9.55;3.60;;;;;;;4.94;73.82;100105.09;4973775;28;20050;-45
2023/11/16 02:02:04;;;;;;;7.00;3.30;;;;;;;4.95;74.43;100108.50;4970326;28;20050;-44
2023/11/16 02:04:34;;;;;;;8.32;3.63;;;;;;;4.94;74.26;100104.22;4969143;28;20057;-42
2023/11/16 02:07:03;;;;;;;8.82;3.45;;;;;;;4.95;73.62;100101.69;4964278;28;20042;-46
2023/11/16 02:09:30;;;;;;;5.40;3.13;;;;;;;4.96;74.20;100097.44;4995411;28;20057;-44
2023/11/16 02:11:57;;;;;;;7.38;3.40;;;;;;;4.96;74.01;100093.13;4973100;28;20074;-41
2023/11/16 02:14:24;;;;;;;7.15;3.10;;;;;;;4.98;74.82;100098.31;4980048;28;20108;-46
2023/11/16 02:16:50;;;;;;;12.05;3.05;;;;;;;4.99;74.55;100097.47;4976822;28;20047;-41
2023/11/16 02:19:33;;;;;;;10.57;4.45;;;;;;;4.98;74.56;100095.75;4966677;28;20051;-44
2023/11/16 02:22:01;;;;;;;11.32;4.05;;;;;;;5.00;73.88;100088.94;4967951;28;20058;-47
2023/11/16 02:24:28;;;;;;;8.23;4.00;;;;;;;4.99;74.01;100082.06;4974567;28;20117;-44
2023/11/16 02:26:55;;;;;;;7.25;4.05;;;;;;;4.99;74.06;100089.75;4968750;28;20508;-44
2023/11/16 02:29:21;;;;;;;8.05;3.67;;;;;;;4.97;73.66;100079.47;4970568;28;20061;-43
2023/11/16 02:31:48;;;;;;;8.30;3.25;;;;;;;4.95;74.34;100070.88;4966765;28;20054;-43
2023/11/16 02:34:15;;;;;;;7.78;4.00;;;;;;;4.91;73.84;100063.06;4972856;28;20042;-48
2023/11/16 02:36:41;;;;;;;8.13;3.28;;;;;;;4.84;74.20;100055.28;4970147;28;20050;-43
2023/11/16 02:39:08;;;;;;;12.07;4.50;;;;;;;4.78;73.96;100052.56;4972014;28;20047;-46
2023/11/16 02:41:38;;;;;;;5.00;3.40;;;;;;;4.68;73.64;100050.63;5003917;28;20046;-47
2023/11/16 02:44:07;;;;;;;6.60;3.58;;;;;;;4.65;74.27;100045.41;4972970;28;20055;-46
2023/11/16 02:46:34;;;;;;;7.63;3.45;;;;;;;4.59;73.96;100041.91;4961634;28;20069;-45
2023/11/16 02:49:01;;;;;;;5.63;3.90;;;;;;;4.56;74.53;100039.25;4971881;28;20500;-44
2023/11/16 02:51:28;;;;;;;11.90;3.55;;;;;;;4.53;74.27;100039.22;4968247;28;20062;-48
2023/11/16 02:53:54;;;;;;;10.15;3.47;;;;;;;4.51;74.11;100048.56;4977240;28;20051;-45
2023/11/16 02:56:21;;;;;;;6.45;3.60;;;;;;;4.48;74.55;100033.09;4967964;28;20147;-45
2023/11/16 02:58:48;;;;;;;6.57;5.32;;;;;;;4.46;73.87;100019.41;4969590;28;20050;-42
2023/11/16 03:01:14;;;;;;;7.25;3.50;;;;;;;4.44;74.40;100021.03;4977415;28;20057;-47
2023/11/16 03:03:41;;;;;;;7.25;3.28;;;;;;;4.42;74.21;100018.44;4958803;28;20046;-46
2023/11/16 03:06:08;;;;;;;7.03;3.75;;;;;;;4.40;74.06;100019.25;4967161;28;20534;-48
2023/11/16 03:08:35;;;;;;;8.15;2.92;;;;;;;4.39;74.02;100020.09;4971651;28;20050;-49
2023/11/16 03:11:02;;;;;;;7.15;3.45;;;;;;;4.37;74.39;100020.94;4974073;28;20050;-51
2023/11/16 03:13:30;;;;;;;6.28;3.53;;;;;;;4.36;74.14;100019.16;4970040;28;20046;-48
2023/11/16 03:15:56;;;;;;;9.77;3.88;;;;;;;4.34;73.97;100020.84;4978633;28;20078;-40
2023/11/16 03:18:23;;;;;;;8.63;2.03;;;;;;;4.35;74.54;100014.88;4978076;28;20424;-47
2023/11/16 03:20:50;;;;;;;10.57;3.63;;;;;;;4.34;74.11;100014.84;4976070;28;20050;-48
2023/11/16 03:23:17;;;;;;;8.82;3.33;;;;;;;4.33;74.25;100008.00;4979470;28;20108;-43
2023/11/16 03:25:44;;;;;;;9.80;3.00;;;;;;;4.32;74.36;100007.13;4972731;28;20046;-52
2023/11/16 03:28:10;;;;;;;9.20;2.67;;;;;;;4.32;74.42;100004.56;4974646;28;20097;-45
2023/11/16 03:30:38;;;;;;;9.05;3.00;;;;;;;4.31;74.64;100001.94;4966726;28;20046;-46
2023/11/16 03:33:08;;;;;;;5.85;3.05;;;;;;;4.32;74.58;100003.72;4972638;28;20055;-46
2023/11/16 03:35:35;;;;;;;4.18;1.35;;;;;;;4.32;74.57;99996.00;4967238;28;20448;-48
2023/11/16 03:38:02;;;;;;;11.43;3.63;;;;;;;4.31;74.41;99997.69;4971418;28;20042;-49
2023/11/16 03:40:30;;;;;;;7.50;3.75;;;;;;;4.33;74.68;100008.00;4966837;28;20079;-41
2023/11/16 03:42:57;;;;;;;7.47;3.13;;;;;;;4.34;74.27;100010.59;4968153;28;20050;-44
2023/11/16 03:45:24;;;;;;;6.00;2.95;;;;;;;4.35;74.44;100022.56;4970740;28;20480;-48
2023/11/16 03:47:51;;;;;;;9.98;3.70;;;;;;;4.39;74.53;100004.69;4975423;28;20050;-45
2023/11/16 03:50:18;;;;;;;5.32;2.85;;;;;;;4.43;74.93;99996.25;4978479;28;20049;-46
2023/11/16 03:52:45;;;;;;;5.25;3.05;;;;;;;4.47;75.00;99986.09;4972221;28;20058;-43
2023/11/16 03:55:12;;;;;;;7.10;3.67;;;;;;;4.52;74.48;99980.19;4978367;28;20500;-45
2023/11/16 03:57:39;;;;;;;5.65;3.42;;;;;;;4.52;74.76;99983.59;4971936;28;20043;-43
2023/11/16 04:00:07;;;;;;;14.55;3.40;;;;;;;4.52;75.14;99981.03;4969427;28;20082;-42
2023/11/16 04:02:35;;;;;;;12.85;5.85;;;;;;;4.53;74.37;99975.09;4963621;28;20054;-47
2023/11/16 04:05:05;;;;;;;6.60;3.28;;;;;;;4.54;74.51;99979.38;4974380;28;20050;-40
2023/11/16 04:07:34;;;;;;;5.18;3.67;;;;;;;4.55;75.01;99981.09;4968041;28;20066;-48
2023/11/16 04:10:04;;;;;;;6.43;4.15;;;;;;;4.56;74.15;99959.75;4973026;28;20125;-49
2023/11/16 04:12:31;;;;;;;5.45;3.60;;;;;;;4.54;74.96;99940.91;4971244;28;20054;-48
2023/11/16 04:14:58;;;;;;;7.18;4.20;;;;;;;4.56;74.58;99934.09;4964513;28;20051;-48
2023/11/16 04:17:26;;;;;;;10.68;4.78;;;;;;;4.57;74.43;99935.84;5007044;28;20043;-46
2023/11/16 04:19:53;;;;;;;10.68;3.50;;;;;;;4.58;74.46;99940.13;4972387;28;20053;-46
2023/11/16 04:22:21;;;;;;;10.65;2.22;;;;;;;4.59;74.87;99938.44;4971141;28;20415;-47
2023/11/16 04:24:51;;;;;;;6.68;3.53;;;;;;;4.59;74.34;99934.16;4975152;28;20051;-46
2023/11/16 04:27:19;;;;;;;7.03;3.47;;;;;;;4.62;74.79;99939.34;4967994;28;20623;-48
2023/11/16 04:29:46;;;;;;;7.57;3.78;;;;;;;4.61;74.22;99927.38;4972429;28;20097;-46
2023/11/16 04:32:14;;;;;;;7.78;4.22;;;;;;;4.63;74.43;99924.84;4975745;28;20046;-46
2023/11/16 04:34:42;;;;;;;6.18;3.03;;;;;;;4.62;74.43;99926.53;4971554;28;20058;-50
2023/11/16 04:37:10;;;;;;;5.10;3.20;;;;;;;4.64;74.93;99918.84;4979910;28;20567;-43
2023/11/16 04:39:37;;;;;;;5.93;3.40;;;;;;;4.63;74.63;99910.28;4975547;28;20046;-46
2023/11/16 04:42:04;;;;;;;7.43;3.95;;;;;;;4.66;74.38;99906.06;4980334;28;20059;-41
2023/11/16 04:44:34;;;;;;;5.88;3.55;;;;;;;4.67;75.09;99906.09;4968340;28;20136;-46
2023/11/16 04:47:01;;;;;;;10.10;4.30;;;;;;;4.69;74.42;99903.56;4977071;28;20069;-49
2023/11/16 04:49:28;;;;;;;6.05;3.00;;;;;;;4.70;74.56;99905.28;4979085;28;20077;-44
2023/11/16 04:51:54;;;;;;;5.25;3.20;;;;;;;4.73;74.58;99902.78;4983935;28;20530;-46
2023/11/16 04:54:21;;;;;;;5.20;3.17;;;;;;;4.74;74.66;99912.19;4974728;28;20050;-44
2023/11/16 04:56:48;;;;;;;5.15;3.67;;;;;;;4.71;74.78;99917.28;4985441;28;20073;-42
2023/11/16 04:59:15;;;;;;;5.90;4.47;;;;;;;4.69;74.29;99921.53;4979497;28;20121;-45
2023/11/16 05:01:41;;;;;;;3.65;3.10;;;;;;;4.65;74.61;99912.00;4975825;28;20054;-49
2023/11/16 05:04:08;;;;;;;5.15;3.10;;;;;;;4.61;74.71;99911.09;4970164;28;20074;-43
2023/11/16 05:06:40;;;;;;;4.97;2.95;;;;;;;4.59;74.72;99918.75;4975892;28;20053;-50
2023/11/16 05:09:07;;;;;;;6.15;3.13;;;;;;;4.59;74.48;99903.38;4973496;28;20516;-49
2023/11/16 05:11:34;;;;;;;3.10;2.05;;;;;;;4.61;74.91;99896.59;4979366;28;20059;-49
2023/11/16 05:14:00;;;;;;;4.80;1.30;;;;;;;4.62;74.41;99889.72;4972538;28;20783;-48
2023/11/16 05:16:27;;;;;;;4.15;2.85;;;;;;;4.63;75.33;99884.63;4972912;28;20493;-46
2023/11/16 05:18:54;;;;;;;8.68;2.90;;;;;;;4.65;75.19;99878.66;4966102;28;20119;-47
2023/11/16 05:21:21;;;;;;;9.00;3.33;;;;;;;4.67;74.57;99882.13;4969517;28;20043;-43
2023/11/16 05:23:49;;;;;;;4.30;3.63;;;;;;;4.67;75.37;99875.31;4970149;28;20078;-48
2023/11/16 05:26:16;;;;;;;6.13;3.95;;;;;;;4.68;74.93;99876.16;4996878;28;20074;-50
2023/11/16 05:28:43;;;;;;;5.50;2.60;;;;;;;4.69;75.35;99867.66;4968673;28;20460;-47
2023/11/16 05:31:11;;;;;;;8.30;3.35;;;;;;;4.69;74.80;99853.09;4967329;28;20054;-42
2023/11/16 05:33:38;;;;;;;7.80;1.42;;;;;;;4.70;74.70;99848.84;4966288;28;20483;-46
2023/11/16 05:36:06;;;;;;;9.68;3.17;;;;;;;4.71;74.94;99845.44;5012270;28;20045;-44
2023/11/16 05:38:32;;;;;;;4.95;2.95;;;;;;;4.70;74.86;99844.56;4974347;28;20046;-40
2023/11/16 05:41:00;;;;;;;6.00;3.20;;;;;;;4.70;74.94;99838.56;4973833;28;20074;-47
2023/11/16 05:43:27;;;;;;;5.38;1.58;;;;;;;4.70;75.43;99844.56;4969693;28;20412;-41
2023/11/16 05:45:53;;;;;;;5.13;2.85;;;;;;;4.70;74.78;99838.56;4971096;28;20162;-49
2023/11/16 05:48:20;;;;;;;6.93;3.30;;;;;;;4.71;74.92;99835.16;4978839;28;20051;-44
2023/11/16 05:50:47;;;;;;;6.22;3.33;;;;;;;4.70;75.17;99833.44;4976423;28;20047;-44
2023/11/16 05:53:14;;;;;;;4.03;2.95;;;;;;;4.67;74.99;99829.13;4972766;28;20094;-45
2023/11/16 05:55:41;;;;;;;6.10;4.95;;;;;;;4.67;75.45;99825.69;4975936;28;20038;-45
2023/11/16 05:58:07;;;;;;;5.95;1.98;;;;;;;4.66;74.83;99819.69;4979472;28;20533;-49
2023/11/16 06:00:36;;;;;;;6.68;3.67;;;;;;;4.61;75.04;99827.31;4974169;28;20055;-47
2023/11/16 06:03:05;;;;;;;7.32;1.67;;;;;;;4.55;75.42;99828.88;4974221;28;22032;-50
2023/11/16 06:05:33;;;;;;;10.52;3.13;;;;;;;4.49;74.49;99830.50;4972508;28;20061;-44
2023/11/16 06:08:00;;;;;;;5.25;3.22;;;;;;;4.47;74.40;99831.31;4999031;28;20054;-40
2023/11/16 06:10:27;;;;;;;5.97;3.60;;;;;;;4.45;74.79;99828.72;4974896;28;20050;-45
2023/11/16 06:12:55;;;;;;;5.07;3.05;;;;;;;4.44;75.48;99827.00;4975751;28;20057;-46
2023/11/16 06:15:24;;;;;;;5.30;3.45;;;;;;;4.44;75.09;99827.00;4968747;28;20050;-45
2023/11/16 06:17:54;;;;;;;9.50;3.58;;;;;;;4.44;75.02;99821.00;4971764;28;20063;-46
2023/11/16 06:20:21;;;;;;;7.40;3.20;;;;;;;4.43;74.74;99820.13;4971971;28;20055;-50
2023/11/16 06:22:50;;;;;;;5.80;3.53;;;;;;;4.43;75.11;99814.16;4967375;28;20061;-44
2023/11/16 06:25:17;;;;;;;4.47;3.60;;;;;;;4.44;75.26;99809.06;4968818;28;20093;-48
2023/11/16 06:27:45;;;;;;;6.43;3.17;;;;;;;4.45;74.89;99802.19;4972528;28;20125;-44
2023/11/16 06:30:13;;;;;;;4.70;2.95;;;;;;;4.45;74.90;99812.47;4973168;28;20114;-48
2023/11/16 06:32:42;;;;;;;9.65;4.03;;;;;;;4.46;75.30;99809.09;4999435;28;20061;-49
2023/11/16 06:35:10;;;;;;;8.48;4.13;;;;;;;4.48;75.00;99807.38;4970525;28;20078;-50
2023/11/16 06:37:37;;;;;;;8.27;4.55;;;;;;;4.47;75.11;99811.69;5011183;28;20083;-47
2023/11/16 06:40:08;;;;;;;8.25;3.63;;;;;;;4.43;74.95;99814.16;4972583;28;20050;-49
2023/11/16 06:42:37;;;;;;;6.40;3.88;;;;;;;4.37;74.92;99809.75;4984045;28;20069;-45
2023/11/16 06:45:05;;;;;;;7.00;4.05;;;;;;;4.33;74.63;99808.81;4978560;28;20102;-47
2023/11/16 06:47:34;;;;;;;9.02;3.97;;;;;;;4.30;75.28;99798.53;4977823;28;20577;-45
2023/11/16 06:50:03;;;;;;;6.05;3.80;;;;;;;4.28;75.00;99795.06;4981884;28;20074;-42
2023/11/16 06:52:32;;;;;;;5.90;3.58;;;;;;;4.25;75.33;99800.13;4974603;28;20058;-53
2023/11/16 06:55:00;;;;;;;9.43;5.03;;;;;;;4.23;75.30;99796.69;4972901;28;20438;-44
2023/11/16 06:57:27;;;;;;;8.10;4.07;;;;;;;4.20;75.34;99796.63;4980564;28;20518;-47
2023/11/16 06:59:54;;;;;;;5.40;4.05;;;;;;;4.18;75.19;99804.28;4976718;28;20072;-53
2023/11/16 07:02:22;;;;;;;5.53;3.88;;;;;;;4.17;75.61;99788.88;4978544;28;20668;-46
2023/11/16 07:04:49;;;;;;;7.15;3.92;;;;;;;4.18;75.31;99788.03;4972462;28;20547;-43
2023/11/16 07:07:17;;;;;;;8.52;4.75;;;;;;;4.19;75.76;99782.09;4978421;28;20525;-44
2023/11/16 07:09:45;;;;;;;11.65;4.13;;;;;;;4.19;74.95;99784.66;5001266;28;20130;-45
2023/11/16 07:12:14;;;;;;;6.15;4.05;;;;;;;4.21;75.30;99788.09;4963276;28;20123;-47
2023/11/16 07:14:41;;;;;;;6.68;4.80;;;;;;;4.21;75.08;99772.72;4962384;28;20051;-44
2023/11/16 07:17:19;;;;;;;8.32;2.50;;;;;;;4.23;75.57;99776.19;4964528;28;20406;-44
2023/11/16 07:19:47;;;;;;;12.73;4.90;;;;;;;4.24;75.72;99776.22;4963762;28;20137;-44
2023/11/16 07:22:14;;;;;;;9.48;5.20;;;;;;;4.26;75.44;99766.00;4964460;28;20097;-46
2023/11/16 07:24:43;;;;;;;6.85;4.60;;;;;;;4.26;75.47;99771.13;4964031;28;20050;-42
2023/11/16 07:27:11;;;;;;;7.53;2.67;;;;;;;4.26;75.52;99768.56;4969723;28;20422;-49
2023/11/16 07:29:41;;;;;;;9.30;5.10;;;;;;;4.26;75.32;99771.13;4978834;28;20444;-49
2023/11/16 07:32:07;;;;;;;10.52;5.32;;;;;;;4.28;75.19;99774.56;4964213;28;20047;-43
2023/11/16 07:34:39;;;;;;;10.02;5.40;;;;;;;4.29;75.52;99785.69;4962935;28;20577;-41
2023/11/16 07:37:06;;;;;;;14.18;5.50;;;;;;;4.30;76.44;99790.84;4969222;28;20039;-45
2023/11/16 07:39:33;;;;;;;10.93;4.07;;;;;;;4.30;76.16;99790.84;4971021;28;20051;-42
2023/11/16 07:42:01;;;;;;;9.80;5.15;;;;;;;4.29;75.68;99799.34;4977860;28;20078;-44
2023/11/16 07:44:28;;;;;;;7.35;4.25;;;;;;;4.29;75.59;99791.66;4971055;28;20160;-46
2023/11/16 07:46:54;;;;;;;7.35;4.35;;;;;;;4.30;75.94;99802.78;4978129;28;20043;-43
2023/11/16 07:49:22;;;;;;;10.30;4.55;;;;;;;4.32;75.87;99801.97;4979320;28;20522;-43
2023/11/16 07:51:51;;;;;;;8.68;5.38;;;;;;;4.35;75.77;99807.16;4969949;28;20043;-42
2023/11/16 07:54:18;;;;;;;14.23;4.28;;;;;;;4.35;75.66;99796.03;4977929;28;20113;-51
2023/11/16 07:56:51;;;;;;;8.57;4.57;;;;;;;4.39;75.58;99813.22;4982590;28;20046;-49
2023/11/16 07:59:30;;;;;;;8.88;5.25;;;;;;;4.40;75.86;99814.97;4975679;28;20656;-49
2023/11/16 08:02:00;;;;;;;6.40;4.72;;;;;;;4.42;75.75;99818.41;4975671;28;20046;-46
2023/11/16 08:04:29;;;;;;;8.18;4.70;;;;;;;4.45;75.88;99815.03;4974254;28;20076;-48
2023/11/16 08:06:59;;;;;;;10.98;5.10;;;;;;;4.47;76.38;99826.19;4971274;28;20497;-46
2023/11/16 08:09:29;;;;;;;8.90;4.75;;;;;;;4.52;76.23;99816.03;4963574;28;20138;-43
2023/11/16 08:11:57;;;;;;;7.55;4.85;;;;;;;4.57;76.06;99815.28;4973836;28;20098;-45
2023/11/16 08:14:25;;;;;;;10.93;5.32;;;;;;;4.61;76.34;99819.63;4969779;28;20499;-48
2023/11/16 08:16:58;;;;;;;8.18;4.80;;;;;;;4.65;75.95;99817.09;4967317;28;20605;-47
2023/11/16 08:19:26;;;;;;;8.43;4.47;;;;;;;4.68;75.80;99814.56;5006464;28;20511;-45
2023/11/16 08:21:55;;;;;;;14.00;5.38;;;;;;;4.70;76.11;99808.63;4980282;28;20042;-44
2023/11/16 08:24:25;;;;;;;11.82;5.32;;;;;;;4.72;75.63;99806.97;4971719;28;20078;-48
2023/11/16 08:26:56;;;;;;;8.60;5.43;;;;;;;4.75;75.84;99812.16;4979084;28;20043;-43
2023/11/16 08:29:23;;;;;;;8.20;5.10;;;;;;;4.78;76.20;99813.03;4977880;28;20050;-41
2023/11/16 08:31:54;;;;;;;12.90;5.35;;;;;;;4.79;75.79;99818.19;4970371;28;20038;-41
2023/11/16 08:34:22;;;;;;;;;;;;;;;4.74;76.19;99805.31;4979877;28;20053;-46
2023/11/16 08:36:49;;;;;;;11.43;5.80;;;;;;;4.78;75.94;99808.78;4973250;28;19922;-42
2023/11/16 08:39:17;;;;;;;10.80;5.68;;;;;;;4.79;75.38;99807.94;4972687;28;20049;-43
2023/11/16 08:41:45;;;;;;;11.13;5.60;;;;;;;4.79;76.39;99797.66;4968710;28;20047;-51
2023/11/16 08:44:11;;;;;;;11.60;5.97;;;;;;;4.80;75.91;99809.66;4976209;28;20050;-48
2023/11/16 08:46:45;;;;;;;12.98;3.10;;;;;;;4.81;75.88;99801.13;4973167;28;20494;-46
2023/11/16 08:49:12;;;;;;;11.93;5.47;;;;;;;4.83;75.63;99804.56;4978247;28;20082;-46
2023/11/16 08:51:39;;;;;;;14.77;6.05;;;;;;;4.84;75.84;99806.31;4977344;28;20055;-42
2023/11/16 08:54:08;;;;;;;14.38;5.88;;;;;;;4.85;75.71;99787.53;4977245;28;20043;-46
2023/11/16 08:56:35;;;;;;;14.30;6.82;;;;;;;4.87;76.34;99793.53;4966307;28;20190;-43
2023/11/16 08:59:09;;;;;;;11.23;6.57;;;;;;;4.89;76.67;99789.28;4981167;28;20047;-48
2023/11/16 09:01:37;;;;;;;17.00;6.65;;;;;;;4.94;75.59;99791.06;4970277;28;20054;-43
2023/11/16 09:04:06;;;;;;;20.63;6.05;;;;;;;4.95;76.29;99785.97;4981066;28;20074;-41
2023/11/16 09:06:33;;;;;;;16.25;6.57;;;;;;;4.99;75.99;99789.44;4976326;28;20065;-45
2023/11/16 09:09:09;;;;;;;13.93;6.10;;;;;;;5.01;76.48;99785.19;4970136;28;20105;-43
2023/11/16 09:11:36;;;;;;;13.00;5.90;;;;;;;5.04;75.92;99785.25;4965041;28;20109;-51
2023/11/16 09:14:04;;;;;;;14.80;5.32;;;;;;;5.07;76.12;99776.72;4970222;28;20054;-55
2023/11/16 09:16:32;;;;;;;10.63;5.70;;;;;;;5.08;75.91;99773.31;4978038;28;20055;-47
2023/11/16 09:18:59;;;;;;;14.38;6.05;;;;;;;5.12;75.95;99773.41;4977379;28;20731;-50
2023/11/16 09:21:29;;;;;;;12.52;5.90;;;;;;;5.14;76.67;99771.69;4973478;28;20134;-44
2023/11/16 09:23:56;;;;;;;13.13;6.03;;;;;;;5.20;76.75;99780.34;4978271;28;20120;-48
2023/11/16 09:26:23;;;;;;;14.57;6.45;;;;;;;5.23;76.20;99788.06;4976100;28;20082;-42
2023/11/16 09:28:52;;;;;;;14.98;6.78;;;;;;;5.24;76.63;99784.69;4974296;28;20058;-45
2023/11/16 09:31:33;;;;;;;12.52;5.88;;;;;;;5.27;76.68;99784.75;4973505;28;20051;-48
2023/11/16 09:34:00;;;;;;;11.68;5.90;;;;;;;5.31;75.82;99791.66;4981934;28;20108;-49
2023/11/16 09:36:27;;;;;;;12.98;5.95;;;;;;;5.36;76.92;99784.00;4978145;28;20214;-48
2023/11/16 09:38:57;;;;;;;9.85;5.05;;;;;;;5.39;76.67;99784.91;4975861;28;20047;-47
2023/11/16 09:41:28;;;;;;;12.30;6.22;;;;;;;5.44;76.89;99781.53;4981217;28;20076;-47
2023/11/16 09:44:01;;;;;;;16.98;5.50;;;;;;;5.49;76.78;99785.03;4976246;28;20066;-48
2023/11/16 09:46:31;;;;;;;11.93;6.38;;;;;;;5.55;76.23;99790.25;4952721;28;20054;-48
2023/11/16 09:48:59;;;;;;;12.00;4.88;;;;;;;5.62;76.15;99792.06;4972531;28;20057;-42
2023/11/16 09:51:29;;;;;;;14.25;6.32;;;;;;;5.68;76.74;99790.41;4976223;28;20043;-43
2023/11/16 09:53:58;;;;;;;13.57;6.00;;;;;;;5.74;76.00;99790.50;4973250;28;20047;-45
2023/11/16 09:56:28;;;;;;;14.55;5.90;;;;;;;5.77;76.19;99786.25;4975256;28;20042;-42
2023/11/16 09:59:13;;;;;;;11.40;5.55;;;;;;;5.84;76.00;99792.34;4979784;28;20066;-47
2023/11/16 10:01:42;;;;;;;18.27;5.40;;;;;;;5.88;76.54;99791.53;4983421;28;20053;-48
2023/11/16 10:04:11;;;;;;;14.93;6.25;;;;;;;5.94;76.32;99797.59;4975506;28;20097;-43
2023/11/16 10:06:42;;;;;;;14.07;5.57;;;;;;;5.98;75.65;99794.22;4974437;28;20050;-49
2023/11/16 10:09:14;;;;;;;16.83;4.30;;;;;;;6.04;76.89;99796.88;4975126;28;20391;-50
2023/11/16 10:11:41;;;;;;;17.30;5.78;;;;;;;6.11;76.11;99801.25;4968848;28;20051;-48
2023/11/16 10:14:08;;;;;;;15.88;6.55;;;;;;;6.19;76.60;99808.19;4973042;28;20054;-45
2023/11/16 10:16:35;;;;;;;19.45;5.70;;;;;;;6.28;76.35;99803.16;4973070;28;20504;-44
2023/11/16 10:19:06;;;;;;;20.50;5.68;;;;;;;6.34;76.57;99808.38;4979150;28;20054;-48
2023/11/16 10:21:34;;;;;;;13.20;5.30;;;;;;;6.40;76.93;99813.59;5007779;28;20053;-48
2023/11/16 10:24:09;;;;;;;17.45;6.30;;;;;;;6.47;75.84;99818.78;4971146;28;20105;-45
2023/11/16 10:26:36;;;;;;;17.88;6.15;;;;;;;6.55;76.99;99822.28;4969274;28;20050;-43
2023/11/16 10:29:03;;;;;;;17.23;7.00;;;;;;;6.60;76.16;99823.22;4972636;28;20046;-45
2023/11/16 10:31:31;;;;;;;19.17;5.85;;;;;;;6.64;76.60;99824.97;4966997;28;20051;-46
2023/11/16 10:33:59;;;;;;;16.35;6.10;;;;;;;6.71;76.56;99827.59;5003760;28;20046;-52
2023/11/16 10:36:26;;;;;;;19.17;7.10;;;;;;;6.76;77.08;99825.94;4975862;28;20074;-47
2023/11/16 10:38:56;;;;;;;18.98;6.38;;;;;;;6.80;76.81;99827.69;4969997;28;20039;-44
2023/11/16 10:41:23;;;;;;;17.58;6.20;;;;;;;6.86;77.34;99827.72;4973987;28;20062;-48
2023/11/16 10:43:55;;;;;;;18.15;7.07;;;;;;;6.89;76.20;99830.34;4981806;28;20097;-46
2023/11/16 10:46:27;;;;;;;18.75;6.95;;;;;;;6.94;76.05;99831.25;5003497;28;20054;-44
2023/11/16 10:48:54;;;;;;;20.92;4.68;;;;;;;6.97;77.53;99834.69;5008738;28;20411;-48
2023/11/16 10:51:22;;;;;;;16.35;5.85;;;;;;;7.03;77.43;99837.34;4978540;28;20110;-45
2023/11/16 10:53:52;;;;;;;23.65;7.88;;;;;;;7.06;76.24;99840.78;4977344;28;20054;-43
2023/11/16 10:56:19;;;;;;;18.60;7.15;;;;;;;7.10;76.63;99839.13;4975171;28;20043;-47
2023/11/16 10:58:48;;;;;;;16.75;6.10;;;;;;;7.14;77.55;99833.13;4986420;28;20053;-42
2023/11/16 11:01:17;;;;;;;23.10;7.07;;;;;;;7.18;77.40;99832.31;4978677;28;20046;-42
2023/11/16 11:03:46;;;;;;;;;;;;;;;7.14;76.54;99838.28;5013897;28;20053;-47
2023/11/16 11:06:18;;;;;;;19.17;6.47;;;;;;;7.24;76.66;99838.34;4980781;28;19922;-43
2023/11/16 11:08:47;;;;;;;14.82;6.05;;;;;;;7.26;76.82;99837.50;4967763;28;20074;-43
2023/11/16 11:11:23;;;;;;;17.65;5.90;;;;;;;7.29;76.58;99844.38;4977945;28;20460;-50
2023/11/16 11:13:54;;;;;;;19.85;7.55;;;;;;;7.29;77.13;99836.66;4971542;28;20055;-44
2023/11/16 11:16:25;;;;;;;21.58;7.80;;;;;;;7.31;76.99;99846.16;4975550;28;20053;-43
2023/11/16 11:18:53;;;;;;;17.25;7.20;;;;;;;7.33;77.12;99836.69;4980092;28;20054;-48
2023/11/16 11:21:23;;;;;;;18.13;7.50;;;;;;;7.35;76.36;99841.00;4975915;28;20511;-44
2023/11/16 11:24:08;;;;;;;15.93;7.18;;;;;;;7.36;77.25;99837.59;5000315;28;20074;-45
2023/11/16 11:26:41;;;;;;;18.70;7.13;;;;;;;7.38;76.55;99841.03;4968506;28;20050;-42
2023/11/16 11:29:09;;;;;;;17.77;6.88;;;;;;;7.40;76.64;99849.66;5000496;28;20042;-51
2023/11/16 11:34:15;;;;;;;18.65;5.60;;;;;;;7.42;76.83;99846.22;5047913;28;20403;-45
2023/11/16 11:36:44;;;;;;;15.32;5.05;;;;;;;7.41;77.51;99839.34;5056843;28;20055;-51
2023/11/16 11:39:14;;;;;;;20.17;5.30;;;;;;;7.42;77.62;99837.63;5056373;28;20052;-53
2023/11/16 11:41:55;;;;;;;16.27;5.30;;;;;;;7.43;76.16;99835.06;5061271;28;20497;-41
2023/11/16 11:44:23;;;;;;;27.38;4.60;;;;;;;7.44;77.45;99831.63;5056844;28;20072;-44